Terminal Aerodrome Forecast
Issued by NWS Dallas/Fort Worth, TX

Current Version | Previous Version | Text Only | Print | Product List | Glossary On
Versions: 1 2 3 4 5 6 7 8 9 10 11 12 13 14 15 16 17 18 19 20 21 22 23 24 25 26
000
FTUS44 KFWD 231203 AAA
TAFACT
TAF AMD
KACT 231203Z 2312/2412 16007KT P6SM BKN300
      TEMPO 2312/2315 BKN008
     FM231700 17009KT P6SM FEW050
     FM240500 12006KT P6SM VCTS SCT050CB
     FM240900 04006KT 5SM -TSRA BKN020CB=

USA.gov is the U.S. government's official web portal to all federal, state and local government web resources and services.